Ban Bolek, Lao Peoples Republic

9:42 PM +07 on May 25, 2018 (GMT +0700)
Ban Pak Suai | | Change Station

Elev 541 ft 17.97 °N, 103.00 °E | Updated 11 minutes ago

Partly Cloudy
Partly Cloudy
84.9 °F
Feels Like 97 °F
N
0.7
Wind Variable Wind from NNW
Gusts 2.5 mph

Today
High -- | Low -- °F
--% Chance of Precip.
Yesterday
High -- | Low -- °F
Precip. -- in
Pressure 29.77 in
Visibility 2.5 miles
Clouds Scattered Clouds 1000 ft
Few 2300 ft
Mostly Cloudy 8300 ft
Heat Index 97 °F
Dew Point 76 °F
Humidity 80%
Rainfall Not available.
Snow Depth Not available.
5:33 AM 6:37 PM
Waxing Gibbous, 84% visible
METAR VLVT 251400Z 22010KT 4000 TSRA SCT010 FEW023CB BKN083 27/21 Q1008 CB W NOSIG
Pressure 29.77 in
Visibility 2.5 miles
Clouds Scattered Clouds 1000 ft
Few 2300 ft
Mostly Cloudy 8300 ft
Heat Index 97 °F
Dew Point 76 °F
Humidity 80%
Rainfall Not available.
Snow Depth Not available.
5:33 AM 6:37 PM
Waxing Gibbous, 84% visible
METAR VLVT 251400Z 22010KT 4000 TSRA SCT010 FEW023CB BKN083 27/21 Q1008 CB W NOSIG

Get Severe Weather Alerts

Thanks for signing up!

Be on the lookout for a verification email in your inbox.

You'll start receiving the daily forecast at 6 AM.

×

10-Day Weather Forecast

No radar image for this location.
×

Almanac

Astronomy

May. 25, 2018 Rise Set
Actual Time
Civil Twilight
Nautical Twilight
Astronomical Twilight
Moon
Length of Visible Light
Length of Day
Tomorrow will be .
, % of the Moon is Illuminated

Today's Extremes

Country Highs Country Lows

Community

WunderPhotos

Category 6

Welcome to Category 6. This is the collective home for Weather Underground's featured writeups by Dr. Jeff Masters (right), Bob Henson (left), Chris Burt, and other regular contributors.

Nearby

Air Quality

  Air Quality AQ Index Pollutant
Not available.

Snow Depth

Station Depth Elevation

Earthquake Activity

City Distance Mag. Time & Date
Minimum magnitude displayed is 2.5.

Coastal Water Temperatures

Place Temperature

Stations

Nearby Weather Stations

Station Location Temp. Windchill Dew Point Humidity Wind Precip. Elev Updated Type